createdAt,value
2023-04-17T00:02:02.975Z,11.33
2023-04-17T00:12:12.205Z,2.67
2023-04-17T00:17:17.432Z,9.00
2023-04-17T00:22:22.601Z,5.50
2023-04-17T00:27:27.753Z,12.00
2023-04-17T00:32:32.882Z,7.00
2023-04-17T00:37:37.858Z,4.00
2023-04-17T00:42:42.967Z,3.33
2023-04-17T00:52:53.627Z,11.50
2023-04-17T00:57:59.279Z,10.67
2023-04-17T01:03:04.724Z,11.00
2023-04-17T01:08:09.865Z,6.00
2023-04-17T01:13:16.125Z,6.50
2023-04-17T01:18:23.157Z,7.33
2023-04-17T01:23:31.108Z,6.00
2023-04-17T01:28:36.109Z,8.00
2023-04-17T01:33:41.187Z,6.00
2023-04-17T01:38:47.048Z,11.00
2023-04-17T01:43:52.189Z,12.67
2023-04-17T01:48:58.426Z,11.00
2023-04-17T01:54:03.478Z,10.00
2023-04-17T01:59:08.399Z,13.25
2023-04-17T02:04:13.696Z,13.50
2023-04-17T02:09:18.973Z,9.50
2023-04-17T02:14:24.063Z,7.00
2023-04-17T02:19:29.356Z,13.67
2023-04-17T02:24:34.339Z,4.00
2023-04-17T02:29:39.499Z,12.00
2023-04-17T02:34:44.741Z,5.50
2023-04-17T02:39:53.785Z,14.50
2023-04-17T02:44:58.879Z,11.50
2023-04-17T02:50:04.128Z,11.33
2023-04-17T02:55:15.004Z,13.75
2023-04-17T03:00:22.199Z,11.50
2023-04-17T03:05:27.089Z,13.00
2023-04-17T03:10:32.266Z,18.50
2023-04-17T03:15:37.961Z,12.67
2023-04-17T03:20:43.018Z,13.00
2023-04-17T03:25:48.146Z,17.67
2023-04-17T03:30:56.316Z,13.00
2023-04-17T03:36:01.620Z,16.75
2023-04-17T03:41:07.709Z,11.33
2023-04-17T03:46:12.935Z,13.25
2023-04-17T03:51:19.297Z,13.75
2023-04-17T03:56:25.846Z,11.00
2023-04-17T04:01:30.943Z,16.00
2023-04-17T04:06:50.721Z,15.25
2023-04-17T04:11:58.624Z,12.00
2023-04-17T04:17:04.496Z,12.33
2023-04-17T04:22:11.678Z,11.00
2023-04-17T04:27:24.971Z,12.00
2023-04-17T04:32:30.843Z,21.33
2023-04-17T04:37:37.270Z,15.00
2023-04-17T04:42:50.821Z,10.00
2023-04-17T04:48:00.423Z,17.00
2023-04-17T04:53:05.338Z,16.00
2023-04-17T04:58:33.273Z,15.33
2023-04-17T05:03:40.019Z,17.67
2023-04-17T05:08:47.251Z,16.33
2023-04-17T05:13:54.174Z,19.00
2023-04-17T05:19:05.995Z,13.00
2023-04-17T05:24:27.669Z,22.33
2023-04-17T05:29:34.417Z,19.50
2023-04-17T05:34:39.936Z,22.33
2023-04-17T05:39:46.161Z,17.25
2023-04-17T05:44:52.294Z,21.50
2023-04-17T05:49:59.577Z,21.00
2023-04-17T05:55:07.067Z,20.00
2023-04-17T06:00:14.575Z,23.00
2023-04-17T06:05:19.868Z,26.00
2023-04-17T06:10:25.200Z,29.75
2023-04-17T06:15:30.502Z,25.33
2023-04-17T06:20:39.885Z,22.00
2023-04-17T06:25:45.297Z,19.67
2023-04-17T06:30:51.148Z,29.00
2023-04-17T06:35:57.508Z,23.00
2023-04-17T06:41:24.342Z,28.75
2023-04-17T06:46:31.710Z,25.25
2023-04-17T06:51:41.697Z,26.75
2023-04-17T06:56:46.890Z,27.00
2023-04-17T07:01:51.889Z,31.25
2023-04-17T07:06:57.324Z,29.75
2023-04-17T07:12:02.454Z,27.50
2023-04-17T07:17:07.481Z,28.67
2023-04-17T07:22:13.001Z,28.50
2023-04-17T07:27:18.672Z,28.00
2023-04-17T07:32:27.401Z,29.67
2023-04-17T07:37:32.511Z,28.67
2023-04-17T07:42:37.527Z,28.00
2023-04-17T07:47:42.602Z,32.00
2023-04-17T07:52:49.493Z,25.67
2023-04-17T07:57:54.567Z,27.50
2023-04-17T08:02:59.698Z,27.33
2023-04-17T08:13:09.180Z,29.00
2023-04-17T08:18:14.044Z,22.33
2023-04-17T08:23:19.096Z,26.67
2023-04-17T08:28:24.245Z,30.00
2023-04-17T08:33:29.247Z,29.00
2023-04-17T08:38:34.264Z,31.50
2023-04-17T08:43:39.490Z,29.33
2023-04-17T08:48:44.507Z,29.67
2023-04-17T08:53:49.748Z,28.75
2023-04-17T08:58:54.744Z,27.00
2023-04-17T09:03:59.653Z,28.75
2023-04-17T09:09:05.592Z,21.75
2023-04-17T09:14:33.621Z,23.33
2023-04-17T09:19:38.588Z,29.00
2023-04-17T09:24:45.965Z,26.67
2023-04-17T09:35:10.945Z,28.50
2023-04-17T09:40:16.554Z,27.33
2023-04-17T09:45:23.872Z,28.67
2023-04-17T09:50:29.801Z,29.00
2023-04-17T09:55:36.068Z,28.25
2023-04-17T10:00:44.341Z,22.25
2023-04-17T10:05:49.573Z,28.50
2023-04-17T10:10:56.297Z,31.00
2023-04-17T10:16:01.423Z,34.75
2023-04-17T10:21:26.590Z,26.00
2023-04-17T10:26:37.125Z,34.67
2023-04-17T10:32:35.666Z,33.33
2023-04-17T10:37:49.847Z,34.67
2023-04-17T10:43:12.633Z,30.67
2023-04-17T10:48:40.222Z,32.00
2023-04-17T10:53:49.478Z,30.00
2023-04-17T10:59:04.935Z,31.75
2023-04-17T11:04:11.759Z,30.00
2023-04-17T11:09:17.631Z,30.67
2023-04-17T11:14:25.449Z,30.25
2023-04-17T11:19:30.656Z,31.33
2023-04-17T11:24:35.660Z,35.75
2023-04-17T11:29:40.722Z,31.67
2023-04-17T11:34:45.767Z,33.33
2023-04-17T11:39:50.870Z,32.75
2023-04-17T11:45:05.542Z,33.75
2023-04-17T11:50:10.725Z,38.25
2023-04-17T11:55:19.666Z,33.75
2023-04-17T12:00:28.932Z,52.00
2023-04-17T12:05:34.229Z,50.67
2023-04-17T12:10:40.998Z,52.75
2023-04-17T12:15:46.170Z,46.50
2023-04-17T12:20:52.417Z,38.33
2023-04-17T12:25:57.348Z,37.33
2023-04-17T12:31:02.586Z,30.75
2023-04-17T12:36:08.730Z,28.50
2023-04-17T12:41:14.840Z,22.50
2023-04-17T12:46:20.207Z,27.00
2023-04-17T12:51:25.006Z,28.33
2023-04-17T12:56:30.257Z,22.25
2023-04-17T13:01:36.256Z,27.75
2023-04-17T13:06:41.396Z,22.33
2023-04-17T13:11:46.707Z,27.75
2023-04-17T13:16:52.161Z,23.00
2023-04-17T13:27:03.066Z,26.00
2023-04-17T13:32:08.703Z,27.67
2023-04-17T13:37:15.843Z,31.00
2023-04-17T13:42:22.405Z,21.33
2023-04-17T13:47:27.761Z,25.33
2023-04-17T13:52:33.009Z,25.00
2023-04-17T13:57:38.328Z,26.00
2023-04-17T14:02:43.866Z,27.67
2023-04-17T14:07:49.619Z,27.50
2023-04-17T14:12:55.206Z,23.50
2023-04-17T14:28:10.843Z,22.00
2023-04-17T14:33:19.383Z,25.50
2023-04-17T14:38:26.902Z,29.67
2023-04-17T14:43:32.224Z,26.75
2023-04-17T14:48:48.146Z,22.00
2023-04-17T14:54:00.401Z,24.75
2023-04-17T14:59:07.819Z,28.75
2023-04-17T15:04:13.838Z,18.50
2023-04-17T15:09:19.250Z,24.00
2023-04-17T15:14:24.926Z,25.33
2023-04-17T15:19:30.349Z,23.75
2023-04-17T15:24:36.149Z,21.75
2023-04-17T15:29:41.730Z,26.00
2023-04-17T15:34:47.006Z,19.33
2023-04-17T15:39:52.438Z,24.33
2023-04-17T15:44:58.790Z,27.00
2023-04-17T15:50:04.044Z,22.00
2023-04-17T16:00:15.603Z,28.25
2023-04-17T16:05:21.556Z,23.33
2023-04-17T16:10:27.907Z,27.75
2023-04-17T16:15:33.007Z,29.50
2023-04-17T16:20:39.685Z,28.75
2023-04-17T16:25:44.527Z,30.50
2023-04-17T16:30:50.431Z,32.00
2023-04-17T16:35:55.899Z,27.00
2023-04-17T16:46:18.401Z,23.50
2023-04-17T16:51:27.498Z,28.00
2023-04-17T16:56:33.126Z,30.67
2023-04-17T17:01:38.997Z,33.00
2023-04-17T17:06:44.880Z,28.33
2023-04-17T17:11:50.456Z,22.25
2023-04-17T17:16:56.076Z,28.25
2023-04-17T17:22:01.783Z,15.67
2023-04-17T17:27:07.329Z,22.75
2023-04-17T17:32:12.884Z,30.00
2023-04-17T17:37:18.542Z,24.00
2023-04-17T17:42:24.040Z,25.00
2023-04-17T17:47:29.835Z,29.75
2023-04-17T17:52:35.219Z,32.67
2023-04-17T17:57:48.917Z,28.67
2023-04-17T18:02:55.066Z,27.67
2023-04-17T18:08:00.729Z,27.50
2023-04-17T18:13:06.122Z,34.75
2023-04-17T18:18:11.814Z,25.33
2023-04-17T18:23:18.636Z,24.25
2023-04-17T18:28:23.880Z,26.25
2023-04-17T18:33:31.092Z,26.33
2023-04-17T18:38:36.822Z,29.50
2023-04-17T18:43:42.640Z,24.25
2023-04-17T18:48:48.165Z,28.75
2023-04-17T18:53:53.584Z,26.67
2023-04-17T18:58:58.873Z,28.33
2023-04-17T19:04:04.933Z,24.25
2023-04-17T19:09:11.044Z,24.50
2023-04-17T19:19:22.648Z,26.50
2023-04-17T19:24:28.124Z,36.33
2023-04-17T19:29:35.045Z,26.25
2023-04-17T19:34:40.758Z,31.00
2023-04-17T19:39:46.370Z,20.67
2023-04-17T19:44:53.132Z,28.25
2023-04-17T19:49:58.867Z,16.67
2023-04-17T19:55:05.945Z,30.00
2023-04-17T20:00:12.158Z,21.00
2023-04-17T20:05:19.539Z,20.50
2023-04-17T20:10:25.176Z,21.00
2023-04-17T20:15:31.194Z,30.00
2023-04-17T20:20:37.774Z,25.00
2023-04-17T20:25:43.301Z,24.75
2023-04-17T20:30:48.977Z,24.25
2023-04-17T20:35:54.681Z,21.50
2023-04-17T20:41:03.321Z,28.50
2023-04-17T20:56:22.682Z,30.50
2023-04-17T21:01:28.175Z,27.75
2023-04-17T21:06:34.814Z,29.50
2023-04-17T21:11:40.403Z,28.00
2023-04-17T21:16:46.749Z,31.00
2023-04-17T21:21:52.424Z,31.75
2023-04-17T21:32:05.747Z,22.75
2023-04-17T21:37:11.338Z,21.50
2023-04-17T21:42:18.512Z,24.67
2023-04-17T21:47:24.290Z,25.33
2023-04-17T21:52:30.089Z,26.00
2023-04-17T21:57:36.311Z,25.33
2023-04-17T22:02:41.905Z,28.67
2023-04-17T22:07:54.883Z,17.50
2023-04-17T22:13:01.039Z,15.00
2023-04-17T22:18:06.693Z,30.25
2023-04-17T22:23:30.484Z,27.00
2023-04-17T22:29:12.122Z,30.67
2023-04-17T22:34:54.037Z,25.25
2023-04-17T22:40:36.148Z,28.67
2023-04-17T22:46:00.271Z,36.25
2023-04-17T22:51:06.434Z,21.50
2023-04-17T22:56:15.069Z,23.67
2023-04-17T23:01:20.408Z,22.50
2023-04-17T23:06:27.371Z,19.00
2023-04-17T23:11:33.989Z,6.00
2023-04-17T23:16:38.954Z,30.50
2023-04-17T23:21:43.994Z,28.25
2023-04-17T23:26:50.131Z,26.00
2023-04-17T23:31:55.249Z,21.00
2023-04-17T23:37:00.389Z,25.75
2023-04-17T23:42:08.419Z,26.00
2023-04-17T23:47:16.792Z,23.75
2023-04-17T23:52:21.622Z,24.00
2023-04-17T23:57:27.874Z,24.50
